Time;durP1;ratioP1;P1;durP2;ratioP2;P2;SDS_P1;SDS_P2;PMS_P1;PMS_P2;Temp;Humidity;BMP_temperature;BMP_pressure;BME280_temperature;BME280_humidity;BME280_pressure;Samples;Min_cycle;Max_cycle;Signal;HPM_P1;HPM_P2
2021/01/09 00:00:42;;;;;;;127.50;72.30;;;0.00;99.90;;;;;;5088582;28;20016;-65
2021/01/09 00:03:08;;;;;;;138.88;74.97;;;-0.10;99.90;;;;;;5086761;28;20039;-65
2021/01/09 00:05:34;;;;;;;131.07;73.43;;;-0.20;99.90;;;;;;5087608;28;20388;-65
2021/01/09 00:07:59;;;;;;;119.60;70.47;;;-0.30;99.90;;;;;;5089833;28;20127;-62
2021/01/09 00:10:25;;;;;;;137.00;74.35;;;-0.20;99.90;;;;;;5087133;28;20046;-65
2021/01/09 00:12:51;;;;;;;124.60;71.07;;;-0.10;99.90;;;;;;5089456;28;20514;-65
2021/01/09 00:15:17;;;;;;;124.60;71.10;;;-0.20;99.90;;;;;;5085050;28;20481;-65
2021/01/09 00:17:43;;;;;;;127.70;71.30;;;0.00;99.90;;;;;;5090568;28;20048;-66
2021/01/09 00:20:10;;;;;;;126.00;68.05;;;-0.10;99.90;;;;;;5086553;28;20032;-65
2021/01/09 00:22:36;;;;;;;128.75;72.18;;;-0.10;99.90;;;;;;5090989;28;20019;-66
2021/01/09 00:25:06;;;;;;;133.63;72.25;;;0.00;99.90;;;;;;5082205;28;20035;-65
2021/01/09 00:27:31;;;;;;;132.38;72.55;;;0.00;99.90;;;;;;5091213;28;20055;-65
2021/01/09 00:29:57;;;;;;;140.43;74.65;;;-0.20;99.90;;;;;;5085159;28;20052;-65
2021/01/09 00:32:22;;;;;;;142.38;79.38;;;-0.10;99.90;;;;;;5091243;28;20043;-64
2021/01/09 00:34:48;;;;;;;137.60;78.15;;;-0.20;99.90;;;;;;5080657;28;20020;-64
2021/01/09 00:37:14;;;;;;;139.10;81.30;;;-0.10;99.90;;;;;;5091463;28;20036;-64
2021/01/09 00:39:39;;;;;;;134.50;75.35;;;-0.20;99.90;;;;;;5080556;28;20024;-64
2021/01/09 00:42:05;;;;;;;132.80;76.25;;;-0.10;99.90;;;;;;5089691;28;20397;-63
2021/01/09 00:44:31;;;;;;;135.65;75.55;;;-0.20;99.90;;;;;;5088920;28;20437;-64
2021/01/09 00:46:58;;;;;;;150.20;83.05;;;-0.20;99.90;;;;;;5088256;28;20539;-64
2021/01/09 00:49:24;;;;;;;140.32;76.43;;;-0.30;99.90;;;;;;5085667;28;20013;-64
2021/01/09 00:51:50;;;;;;;135.30;76.72;;;-0.40;99.90;;;;;;5090987;28;20024;-64
2021/01/09 00:54:16;;;;;;;143.40;76.32;;;-0.20;99.90;;;;;;5088176;28;20016;-64
2021/01/09 00:56:42;;;;;;;143.48;81.00;;;-0.30;99.90;;;;;;5089196;28;20024;-64
2021/01/09 00:59:07;;;;;;;138.30;76.65;;;-0.30;99.90;;;;;;5087414;28;20024;-64
2021/01/09 01:01:34;;;;;;;144.70;81.20;;;-0.40;99.90;;;;;;5101326;28;20063;-64
2021/01/09 01:04:00;;;;;;;139.07;78.47;;;-0.30;99.90;;;;;;5086680;28;20020;-64
2021/01/09 01:06:26;;;;;;;134.02;76.40;;;-0.40;99.90;;;;;;5087088;28;20508;-63
2021/01/09 01:08:52;;;;;;;136.20;76.22;;;-0.20;99.90;;;;;;5085216;28;20028;-64
2021/01/09 01:11:29;;;;;;;128.93;76.20;;;-0.20;99.90;;;;;;5086349;28;20020;-63
2021/01/09 01:13:56;;;;;;;134.35;72.20;;;-0.30;99.90;;;;;;5084274;28;20063;-63
2021/01/09 01:16:22;;;;;;;124.20;67.38;;;-0.20;99.90;;;;;;5090038;28;20040;-63
2021/01/09 01:18:48;;;;;;;118.28;68.13;;;-0.10;99.90;;;;;;5085526;28;20039;-63
2021/01/09 01:21:14;;;;;;;127.28;69.20;;;-0.10;99.90;;;;;;5087729;28;20023;-62
2021/01/09 01:23:40;;;;;;;120.03;65.03;;;-0.20;99.90;;;;;;5088207;28;20042;-62
2021/01/09 01:26:08;;;;;;;116.03;64.05;;;-0.40;99.90;;;;;;5081776;28;20035;-62
2021/01/09 01:28:34;;;;;;;128.02;72.22;;;-0.10;99.90;;;;;;5084453;28;20029;-63
2021/01/09 01:30:59;;;;;;;117.30;64.88;;;-0.30;99.90;;;;;;5089250;28;20040;-64
2021/01/09 01:33:25;;;;;;;105.80;61.42;;;-0.30;99.90;;;;;;5085573;28;20028;-63
2021/01/09 01:35:50;;;;;;;105.68;59.70;;;-0.30;99.90;;;;;;5087714;28;20028;-63
2021/01/09 01:38:16;;;;;;;105.20;58.78;;;-0.20;99.90;;;;;;5086937;28;20032;-63
2021/01/09 01:40:42;;;;;;;105.55;60.90;;;-0.30;99.90;;;;;;5086822;28;20073;-64
2021/01/09 01:43:14;;;;;;;107.95;57.05;;;-0.30;99.90;;;;;;5087938;28;20028;-62
2021/01/09 01:45:40;;;;;;;102.47;58.05;;;-0.20;99.90;;;;;;5086304;28;20063;-63
2021/01/09 01:48:10;;;;;;;104.82;60.97;;;-0.20;99.90;;;;;;5087869;28;20039;-63
2021/01/09 01:50:40;;;;;;;97.07;55.05;;;-0.30;99.90;;;;;;5088495;28;20027;-63
2021/01/09 01:53:07;;;;;;;99.15;55.47;;;-0.40;99.90;;;;;;5087755;28;20178;-63
2021/01/09 01:55:33;;;;;;;96.63;54.05;;;-0.40;99.90;;;;;;5085285;28;20020;-63
2021/01/09 01:57:59;;;;;;;95.93;55.95;;;-0.40;99.90;;;;;;5087677;28;20025;-63
2021/01/09 02:00:27;;;;;;;101.30;58.65;;;-0.50;99.90;;;;;;5084487;28;20174;-63
2021/01/09 02:02:59;;;;;;;105.72;58.80;;;-0.40;99.90;;;;;;5087778;28;20372;-63
2021/01/09 02:05:28;;;;;;;96.20;54.28;;;-0.50;99.90;;;;;;5082779;28;20024;-63
2021/01/09 02:07:58;;;;;;;100.15;58.05;;;-0.40;99.90;;;;;;5088223;28;20020;-63
2021/01/09 02:10:25;;;;;;;98.88;54.60;;;-0.50;99.90;;;;;;5082240;28;20431;-63
2021/01/09 02:13:10;;;;;;;102.50;57.72;;;-0.40;99.90;;;;;;5084809;28;20020;-63
2021/01/09 02:15:36;;;;;;;109.70;58.42;;;-0.40;99.90;;;;;;5085406;28;20013;-63
2021/01/09 02:18:03;;;;;;;107.03;59.25;;;-0.60;99.90;;;;;;5087237;28;20073;-63
2021/01/09 02:20:31;;;;;;;109.15;61.05;;;-0.50;99.90;;;;;;5085375;28;20385;-63
2021/01/09 02:22:56;;;;;;;122.50;68.07;;;-0.60;99.90;;;;;;5079123;28;20032;-63
2021/01/09 02:25:22;;;;;;;120.78;66.10;;;-0.50;99.90;;;;;;5079409;28;20021;-63
2021/01/09 02:27:48;;;;;;;114.20;63.38;;;-0.50;99.90;;;;;;5069903;28;20071;-63
2021/01/09 02:30:23;;;;;;;118.22;66.53;;;-0.60;99.90;;;;;;5080399;28;20021;-63
2021/01/09 02:33:00;;;;;;;119.70;65.90;;;-0.50;99.90;;;;;;5069696;28;20025;-63
2021/01/09 02:35:28;;;;;;;120.35;64.35;;;-0.60;99.90;;;;;;5078359;28;20762;-63
2021/01/09 02:37:54;;;;;;;118.15;66.47;;;-0.50;99.90;;;;;;5087446;28;20024;-62
2021/01/09 02:40:21;;;;;;;123.28;67.85;;;-0.60;99.90;;;;;;5084565;28;20016;-63
2021/01/09 02:42:47;;;;;;;111.65;63.08;;;-0.70;99.90;;;;;;5088317;28;20024;-63
2021/01/09 02:45:13;;;;;;;113.70;63.10;;;-0.60;99.90;;;;;;5081428;28;20025;-62
2021/01/09 02:47:39;;;;;;;111.00;62.25;;;-0.70;99.90;;;;;;5088567;28;20028;-63
2021/01/09 02:50:06;;;;;;;119.28;64.93;;;-0.80;99.90;;;;;;5080970;28;20013;-63
2021/01/09 02:52:31;;;;;;;124.80;68.97;;;-0.80;99.90;;;;;;5087354;28;20055;-62
2021/01/09 02:54:57;;;;;;;112.85;61.53;;;-0.80;99.90;;;;;;5085137;28;20055;-62
2021/01/09 02:57:23;;;;;;;101.10;58.95;;;-0.80;99.90;;;;;;5087755;28;20031;-62
2021/01/09 02:59:49;;;;;;;108.97;60.40;;;-0.80;99.90;;;;;;5082333;28;20016;-63
2021/01/09 03:02:15;;;;;;;104.80;61.65;;;-0.90;99.90;;;;;;5089089;28;20502;-62
2021/01/09 03:04:40;;;;;;;116.28;65.63;;;-1.00;99.90;;;;;;5085911;28;20699;-63
2021/01/09 03:07:06;;;;;;;102.93;59.45;;;-1.10;99.90;;;;;;5092914;28;20035;-63
2021/01/09 03:09:32;;;;;;;97.07;56.28;;;-1.00;99.90;;;;;;5086216;28;20028;-63
2021/01/09 03:11:58;;;;;;;103.97;60.45;;;-1.00;99.90;;;;;;5092740;28;20027;-62
2021/01/09 03:14:23;;;;;;;106.65;59.00;;;-0.90;99.90;;;;;;5083077;28;20070;-63
2021/01/09 03:16:49;;;;;;;110.82;60.10;;;-1.00;99.90;;;;;;5089730;28;20064;-62
2021/01/09 03:19:14;;;;;;;97.43;60.45;;;-1.00;99.90;;;;;;5086246;28;20027;-62
2021/01/09 03:21:40;;;;;;;92.05;57.53;;;-1.10;99.90;;;;;;5092688;28;20024;-63
2021/01/09 03:24:06;;;;;;;102.53;60.20;;;-1.20;99.90;;;;;;5086176;28;20034;-62
2021/01/09 03:26:32;;;;;;;96.85;57.70;;;-1.20;99.90;;;;;;5072668;28;20575;-63
2021/01/09 03:28:57;;;;;;;101.43;59.88;;;-1.10;99.90;;;;;;5087154;28;20028;-62
2021/01/09 03:31:24;;;;;;;105.00;59.97;;;-1.10;99.90;;;;;;5088512;28;20084;-63
2021/01/09 03:33:50;;;;;;;98.70;59.17;;;-1.10;99.90;;;;;;5071196;28;20023;-62
2021/01/09 03:36:16;;;;;;;99.97;57.17;;;-1.00;99.90;;;;;;5092166;28;20016;-62
2021/01/09 03:38:42;;;;;;;117.50;67.05;;;-1.10;99.90;;;;;;5085914;28;20071;-61
2021/01/09 03:41:08;;;;;;;129.38;69.88;;;-1.20;99.90;;;;;;5092023;28;20453;-62
2021/01/09 03:43:33;;;;;;;131.00;69.72;;;-1.30;99.90;;;;;;5086866;28;20719;-62
2021/01/09 03:45:59;;;;;;;135.95;70.93;;;-1.20;99.90;;;;;;5091175;28;20503;-62
2021/01/09 03:48:25;;;;;;;127.13;67.35;;;-1.30;99.90;;;;;;5070874;28;20024;-63
2021/01/09 03:50:51;;;;;;;117.75;66.57;;;-1.10;99.90;;;;;;5084690;28;20028;-62
2021/01/09 03:53:17;;;;;;;124.32;66.18;;;-1.10;99.90;;;;;;5086908;28;20039;-61
2021/01/09 03:55:42;;;;;;;122.63;65.68;;;-1.20;99.90;;;;;;5090492;28;20032;-62
2021/01/09 03:58:08;;;;;;;131.40;63.15;;;-1.10;99.90;;;;;;5089870;28;20519;-63
2021/01/09 04:00:34;;;;;;;123.07;66.40;;;-1.00;99.90;;;;;;5080692;28;20108;-63
2021/01/09 04:03:00;;;;;;;128.70;69.60;;;-1.00;99.90;;;;;;5066471;28;20729;-60
2021/01/09 04:05:25;;;;;;;108.13;61.95;;;-1.00;99.90;;;;;;5087118;28;20021;-62
2021/01/09 04:07:51;;;;;;;116.32;64.05;;;-1.10;99.90;;;;;;5087809;28;20103;-60
2021/01/09 04:10:17;;;;;;;124.55;66.00;;;-1.00;99.90;;;;;;5083995;28;20142;-61
2021/01/09 04:12:43;;;;;;;118.28;65.65;;;-0.90;99.90;;;;;;5088429;28;20020;-61
2021/01/09 04:15:09;;;;;;;117.50;65.72;;;-0.90;99.90;;;;;;5086971;28;20020;-60
2021/01/09 04:17:35;;;;;;;115.35;63.47;;;-1.00;99.90;;;;;;5090499;28;20197;-61
2021/01/09 04:20:00;;;;;;;120.32;66.63;;;-0.70;99.90;;;;;;5083882;28;20118;-60
2021/01/09 04:22:26;;;;;;;115.70;63.92;;;-0.80;99.90;;;;;;5090868;28;20056;-61
2021/01/09 04:24:52;;;;;;;107.78;62.85;;;-0.70;99.90;;;;;;5081913;28;20043;-59
2021/01/09 04:27:17;;;;;;;118.57;66.40;;;-0.80;99.90;;;;;;5078610;28;20045;-62
2021/01/09 04:29:43;;;;;;;113.07;63.55;;;-0.70;99.90;;;;;;5086481;28;20024;-61
2021/01/09 04:32:08;;;;;;;107.75;62.83;;;-0.80;99.90;;;;;;5083152;28;20093;-62
2021/01/09 04:34:34;;;;;;;112.65;62.25;;;-0.70;99.90;;;;;;5081955;28;20024;-62
2021/01/09 04:37:00;;;;;;;108.15;60.67;;;-0.80;99.90;;;;;;5089198;28;20028;-61
2021/01/09 04:39:25;;;;;;;110.68;62.60;;;-0.70;99.90;;;;;;5085097;28;20120;-61
2021/01/09 04:41:51;;;;;;;112.72;61.28;;;-0.70;99.90;;;;;;5086820;28;20032;-61
2021/01/09 04:44:17;;;;;;;115.60;61.08;;;-0.70;99.90;;;;;;5081211;28;20035;-61
2021/01/09 04:46:57;;;;;;;115.15;66.07;;;-0.80;99.90;;;;;;5090214;28;20030;-62
2021/01/09 04:49:25;;;;;;;112.55;61.80;;;-0.80;99.90;;;;;;5082404;28;20485;-60
2021/01/09 04:51:52;;;;;;;110.78;60.90;;;-1.00;99.90;;;;;;5083785;28;20024;-61
2021/01/09 04:54:20;;;;;;;110.00;60.15;;;-0.80;99.90;;;;;;5088458;28;20020;-61
2021/01/09 04:56:54;;;;;;;105.75;58.53;;;-0.80;99.90;;;;;;5097838;28;20016;-61
2021/01/09 04:59:21;;;;;;;116.63;63.03;;;-0.90;99.90;;;;;;5078877;28;20513;-62
2021/01/09 05:01:49;;;;;;;115.93;63.92;;;-0.80;99.90;;;;;;5089250;28;20031;-61
2021/01/09 05:04:15;;;;;;;111.35;61.45;;;-0.80;99.90;;;;;;5085300;28;20017;-62
2021/01/09 05:06:43;;;;;;;108.03;62.13;;;-0.70;99.90;;;;;;5080931;28;20032;-62
2021/01/09 05:09:11;;;;;;;108.47;62.65;;;-0.80;99.90;;;;;;5083986;28;20024;-61
2021/01/09 05:11:38;;;;;;;108.53;60.60;;;-0.80;99.90;;;;;;5090108;28;20039;-60
2021/01/09 05:14:04;;;;;;;110.50;62.08;;;-0.80;99.90;;;;;;5083738;28;20048;-61
2021/01/09 05:16:31;;;;;;;112.78;63.25;;;-0.80;99.90;;;;;;5085743;28;20044;-63
2021/01/09 05:18:57;;;;;;;107.35;59.20;;;-0.70;99.90;;;;;;5079680;28;20032;-62
2021/01/09 05:21:24;;;;;;;116.82;62.15;;;-0.60;99.90;;;;;;5076267;28;20089;-62
2021/01/09 05:24:00;;;;;;;115.65;64.93;;;-0.70;99.90;;;;;;5076346;28;20440;-62
2021/01/09 05:26:27;;;;;;;118.32;65.18;;;-0.70;99.90;;;;;;5085071;28;20446;-62
2021/01/09 05:28:57;;;;;;;116.28;63.53;;;-0.60;99.90;;;;;;5083094;28;20055;-63
2021/01/09 05:31:25;;;;;;;122.15;65.32;;;-0.70;99.90;;;;;;5088246;28;20020;-62
2021/01/09 05:33:52;;;;;;;119.20;67.28;;;-0.60;99.90;;;;;;5083647;28;20082;-61
2021/01/09 05:36:18;;;;;;;119.45;67.75;;;-0.70;99.90;;;;;;5089983;28;20058;-63
2021/01/09 05:38:46;;;;;;;123.80;68.93;;;-0.70;99.90;;;;;;5076915;28;20020;-63
2021/01/09 05:41:23;;;;;;;130.55;71.80;;;-0.60;99.90;;;;;;5083828;28;20013;-63
2021/01/09 05:44:03;;;;;;;127.28;72.25;;;-0.60;99.90;;;;;;5078545;28;20481;-62
2021/01/09 05:46:30;;;;;;;134.73;74.28;;;-0.70;99.90;;;;;;5084140;28;20107;-63
2021/01/09 05:48:56;;;;;;;125.60;70.15;;;-0.80;99.90;;;;;;5083016;28;20020;-62
2021/01/09 05:51:23;;;;;;;122.32;68.38;;;-0.60;99.90;;;;;;5089919;28;20095;-63
2021/01/09 05:53:49;;;;;;;119.60;68.18;;;-0.60;99.90;;;;;;5083771;28;20021;-62
2021/01/09 05:56:21;;;;;;;122.90;67.35;;;-0.50;99.90;;;;;;5089522;28;20039;-62
2021/01/09 05:58:51;;;;;;;93.82;52.83;;;-0.50;99.90;;;;;;5085712;28;20439;-66
2021/01/09 06:01:28;;;;;;;88.05;50.00;;;1.10;99.90;;;;;;5083362;28;20082;-68
2021/01/09 06:04:05;;;;;;;105.80;59.08;;;4.40;99.90;;;;;;5085006;28;20027;-62
2021/01/09 06:06:49;;;;;;;112.97;61.72;;;2.90;99.90;;;;;;5086487;28;20061;-62
2021/01/09 06:09:24;;;;;;;104.72;59.55;;;1.20;99.90;;;;;;5086609;28;20508;-63
2021/01/09 06:11:54;;;;;;;101.17;56.83;;;0.30;99.90;;;;;;5089099;28;20074;-61
2021/01/09 06:14:26;;;;;;;104.68;56.45;;;0.20;99.90;;;;;;5078516;28;20048;-61
2021/01/09 06:16:54;;;;;;;105.05;59.90;;;0.00;99.90;;;;;;5077113;28;20439;-61
2021/01/09 06:19:23;;;;;;;108.13;60.30;;;-0.10;99.90;;;;;;5080214;28;20032;-62
2021/01/09 06:21:50;;;;;;;99.78;57.60;;;0.00;99.90;;;;;;5089274;28;20012;-61
2021/01/09 06:24:17;;;;;;;102.40;60.00;;;0.00;99.90;;;;;;5082988;28;20032;-61
2021/01/09 06:26:43;;;;;;;99.82;56.05;;;-0.10;99.90;;;;;;5086309;28;20115;-60
2021/01/09 06:29:21;;;;;;;99.25;55.78;;;-0.20;99.90;;;;;;5081661;28;20078;-60
2021/01/09 06:32:03;;;;;;;95.15;54.78;;;-0.20;99.90;;;;;;5088501;28;20024;-60
2021/01/09 06:34:30;;;;;;;95.18;52.97;;;0.00;99.90;;;;;;5081662;28;20550;-61
2021/01/09 06:37:04;;;;;;;91.40;52.25;;;-0.30;99.90;;;;;;5088801;28;20221;-61
2021/01/09 06:39:35;;;;;;;91.28;51.88;;;-0.30;99.90;;;;;;5083912;28;20512;-64
2021/01/09 06:42:04;;;;;;;87.60;50.97;;;-0.30;99.90;;;;;;5090674;28;20036;-64
2021/01/09 06:44:31;;;;;;;93.32;53.13;;;-0.40;99.90;;;;;;5084556;28;20539;-64
2021/01/09 06:46:57;;;;;;;95.22;53.55;;;-0.50;99.90;;;;;;5091578;28;20036;-65
2021/01/09 06:49:27;;;;;;;92.30;52.25;;;-0.50;99.90;;;;;;5088768;28;20020;-65
2021/01/09 06:52:03;;;;;;;86.75;47.70;;;-0.50;99.90;;;;;;5073399;28;20499;-65
2021/01/09 06:54:31;;;;;;;86.72;49.15;;;-0.30;99.90;;;;;;5070620;28;20047;-65
2021/01/09 06:57:02;;;;;;;83.38;47.75;;;-0.30;99.90;;;;;;5090099;28;20111;-65
2021/01/09 06:59:29;;;;;;;91.90;48.17;;;-0.30;99.90;;;;;;5089997;28;20035;-64
2021/01/09 07:02:10;;;;;;;90.13;48.03;;;-0.20;99.90;;;;;;5090999;28;20032;-64
2021/01/09 07:04:59;;;;;;;84.32;47.42;;;-0.20;99.90;;;;;;5085036;28;20418;-63
2021/01/09 07:07:25;;;;;;;87.00;46.17;;;-0.20;99.90;;;;;;5084411;28;20036;-63
2021/01/09 07:09:51;;;;;;;87.68;48.22;;;-0.10;99.90;;;;;;5083380;28;20244;-62
2021/01/09 07:12:17;;;;;;;89.28;47.95;;;-0.10;99.90;;;;;;5092734;28;20365;-64
2021/01/09 07:14:44;;;;;;;86.07;48.15;;;-0.20;99.90;;;;;;5086802;28;20147;-63
2021/01/09 07:17:14;;;;;;;81.03;46.75;;;-0.20;99.90;;;;;;5092536;28;20040;-64
2021/01/09 07:19:42;;;;;;;79.15;45.22;;;-0.20;99.90;;;;;;5086425;28;20365;-63
2021/01/09 07:22:09;;;;;;;86.80;46.70;;;-0.30;99.90;;;;;;5092655;28;20052;-62
2021/01/09 07:24:39;;;;;;;80.63;44.90;;;-0.10;99.90;;;;;;5083518;28;20083;-64
2021/01/09 07:27:10;;;;;;;77.80;44.50;;;-0.20;99.90;;;;;;5091588;28;20167;-64
2021/01/09 07:29:42;;;;;;;81.40;44.90;;;-0.30;99.90;;;;;;5089415;28;20396;-63
2021/01/09 07:32:08;;;;;;;76.82;44.75;;;-0.20;99.90;;;;;;5092538;28;20379;-63
2021/01/09 07:34:35;;;;;;;86.22;47.30;;;-0.30;99.90;;;;;;5085530;28;20176;-64
2021/01/09 07:37:01;;;;;;;80.38;44.55;;;-0.20;99.90;;;;;;5091427;28;20396;-64
2021/01/09 07:39:28;;;;;;;80.72;44.78;;;-0.20;99.90;;;;;;5084456;28;20032;-64
2021/01/09 07:41:53;;;;;;;77.40;45.35;;;-0.20;99.90;;;;;;5089261;28;20492;-64
2021/01/09 07:44:23;;;;;;;81.53;44.28;;;-0.30;99.90;;;;;;5089870;28;20031;-64
2021/01/09 07:46:56;;;;;;;82.47;46.67;;;-0.30;99.90;;;;;;5089903;28;20035;-64
2021/01/09 07:49:30;;;;;;;81.75;45.58;;;-0.20;99.90;;;;;;5089828;28;20495;-64
2021/01/09 07:51:59;;;;;;;82.25;46.83;;;-0.10;99.90;;;;;;5086591;28;20043;-63
2021/01/09 07:54:30;;;;;;;85.03;47.97;;;-0.10;99.90;;;;;;5087161;28;20028;-63
2021/01/09 07:56:56;;;;;;;95.65;53.08;;;0.00;99.90;;;;;;5086248;28;20020;-64
2021/01/09 07:59:22;;;;;;;98.53;56.28;;;-0.10;99.90;;;;;;5081791;28;20074;-63
2021/01/09 08:01:47;;;;;;;95.47;55.90;;;-0.20;99.90;;;;;;5091844;28;20031;-63
2021/01/09 08:04:13;;;;;;;93.63;53.13;;;0.00;99.90;;;;;;5084976;28;20028;-63
2021/01/09 08:06:40;;;;;;;99.57;52.50;;;0.00;99.90;;;;;;5091662;28;20028;-64
2021/01/09 08:09:06;;;;;;;91.55;52.15;;;0.00;99.90;;;;;;5088307;28;20526;-63
2021/01/09 08:11:39;;;;;;;95.18;50.92;;;-0.10;99.90;;;;;;5088161;28;20035;-63
2021/01/09 08:14:04;;;;;;;88.43;50.03;;;0.10;99.90;;;;;;5083560;28;20082;-63
2021/01/09 08:16:30;;;;;;;91.72;49.53;;;0.00;99.90;;;;;;5089215;28;20067;-64
2021/01/09 08:19:16;;;;;;;93.35;49.70;;;0.10;99.90;;;;;;5086850;28;20450;-67
2021/01/09 08:21:42;;;;;;;87.80;50.03;;;0.00;99.90;;;;;;5089432;28;20510;-65
2021/01/09 08:24:08;;;;;;;84.10;47.95;;;0.20;99.90;;;;;;5088363;28;20032;-66
2021/01/09 08:26:34;;;;;;;94.05;50.22;;;0.30;99.90;;;;;;5072898;28;20519;-65
2021/01/09 08:29:00;;;;;;;89.20;50.17;;;0.40;99.90;;;;;;5085004;28;20032;-66
2021/01/09 08:31:26;;;;;;;96.68;51.33;;;0.20;99.90;;;;;;5102749;28;20028;-64
2021/01/09 08:33:51;;;;;;;90.50;49.50;;;0.40;99.90;;;;;;5086555;28;20020;-64
2021/01/09 08:36:20;;;;;;;87.80;51.40;;;0.50;99.90;;;;;;5086708;28;20095;-64
2021/01/09 08:38:46;;;;;;;93.82;52.45;;;0.30;99.90;;;;;;5087675;28;20028;-64
2021/01/09 08:41:12;;;;;;;91.32;50.63;;;0.40;99.90;;;;;;5086015;28;20012;-64
2021/01/09 08:43:38;;;;;;;93.55;52.85;;;0.30;99.90;;;;;;5086910;28;20512;-65
2021/01/09 08:46:03;;;;;;;96.57;53.90;;;0.30;99.90;;;;;;5085740;28;20028;-65
2021/01/09 08:48:34;;;;;;;97.10;55.20;;;0.40;99.90;;;;;;5086227;28;20039;-64
2021/01/09 08:51:10;;;;;;;102.47;60.67;;;0.30;99.90;;;;;;5070549;28;20107;-63
2021/01/09 08:53:51;;;;;;;101.68;57.33;;;0.00;99.90;;;;;;5086842;28;20112;-63
2021/01/09 08:56:20;;;;;;;102.30;59.08;;;0.10;99.90;;;;;;5088118;28;20032;-63
2021/01/09 08:58:46;;;;;;;98.97;55.35;;;0.30;99.90;;;;;;5086877;28;20138;-63
2021/01/09 09:01:14;;;;;;;99.50;57.65;;;0.30;99.90;;;;;;5086374;28;20060;-64
2021/01/09 09:03:47;;;;;;;101.53;56.95;;;0.10;99.90;;;;;;5083270;28;20074;-64
2021/01/09 09:06:14;;;;;;;105.55;61.15;;;0.30;99.90;;;;;;5080404;28;20572;-64
2021/01/09 09:08:41;;;;;;;109.53;62.45;;;0.30;99.90;;;;;;5083591;28;20063;-64
2021/01/09 09:11:07;;;;;;;115.53;65.05;;;0.50;99.90;;;;;;5082529;28;20030;-64
2021/01/09 09:13:33;;;;;;;113.38;63.58;;;0.50;99.90;;;;;;5076130;28;20028;-64
2021/01/09 09:16:18;;;;;;;107.47;61.10;;;0.40;99.90;;;;;;5081232;28;20043;-65
2021/01/09 09:18:45;;;;;;;115.45;63.42;;;0.30;99.90;;;;;;5076169;28;20028;-65
2021/01/09 09:21:11;;;;;;;116.82;67.95;;;0.40;99.90;;;;;;5083714;28;20069;-65
2021/01/09 09:23:37;;;;;;;121.28;66.15;;;0.50;99.90;;;;;;5086795;28;20047;-65
2021/01/09 09:26:05;;;;;;;124.00;71.80;;;0.50;99.90;;;;;;5086878;28;20036;-66
2021/01/09 09:28:31;;;;;;;114.90;68.28;;;0.50;99.90;;;;;;5084547;28;20560;-65
2021/01/09 09:30:57;;;;;;;119.55;69.20;;;0.50;99.90;;;;;;5086723;28;20099;-64
2021/01/09 09:33:24;;;;;;;119.15;69.80;;;0.60;99.90;;;;;;5085899;28;20127;-64
2021/01/09 09:35:50;;;;;;;123.78;71.50;;;0.60;99.90;;;;;;5076154;28;20017;-65
2021/01/09 09:38:25;;;;;;;121.43;70.60;;;0.60;99.90;;;;;;5077149;28;20111;-64
2021/01/09 09:41:01;;;;;;;112.57;65.10;;;0.70;99.90;;;;;;5091682;28;20068;-65
2021/01/09 09:43:27;;;;;;;;;;;0.60;99.90;;;;;;5073246;28;20109;-65
2021/01/09 09:46:01;;;;;;;123.53;68.10;;;0.70;99.90;;;;;;5087144;28;20470;-65
2021/01/09 09:48:39;;;;;;;120.72;70.00;;;0.60;99.90;;;;;;5086355;28;20772;-65
2021/01/09 09:51:08;;;;;;;119.50;71.38;;;0.60;99.90;;;;;;5088773;28;20059;-65
2021/01/09 09:53:39;;;;;;;115.80;69.65;;;0.50;99.90;;;;;;5086339;28;20027;-64
2021/01/09 09:56:19;;;;;;;119.25;70.55;;;0.50;99.90;;;;;;5088807;28;20035;-65
2021/01/09 09:58:46;;;;;;;118.35;67.00;;;0.40;99.90;;;;;;5086418;28;20362;-64
2021/01/09 10:01:20;;;;;;;109.70;64.40;;;0.70;99.90;;;;;;5087954;28;20024;-64
2021/01/09 10:03:47;;;;;;;106.05;65.13;;;0.90;99.90;;;;;;5083302;28;20043;-64
2021/01/09 10:06:13;;;;;;;109.60;65.82;;;0.50;99.90;;;;;;5080473;28;20066;-64
2021/01/09 10:08:39;;;;;;;111.95;66.10;;;0.60;99.90;;;;;;5087820;28;20055;-64
2021/01/09 10:11:05;;;;;;;109.00;63.78;;;0.60;99.90;;;;;;5080720;28;20052;-65
2021/01/09 10:13:31;;;;;;;107.50;65.07;;;0.80;99.90;;;;;;5087303;28;20032;-64
2021/01/09 10:15:58;;;;;;;106.18;63.13;;;0.90;99.90;;;;;;5086325;28;20062;-67
2021/01/09 10:18:24;;;;;;;108.78;62.58;;;1.90;99.90;;;;;;5086105;28;20028;-64
2021/01/09 10:20:50;;;;;;;107.18;62.58;;;1.40;99.90;;;;;;5087310;28;20023;-64
2021/01/09 10:23:15;;;;;;;103.65;60.65;;;1.00;99.90;;;;;;5087247;28;20115;-65
2021/01/09 10:25:42;;;;;;;109.38;62.78;;;2.20;99.90;;;;;;5084763;28;20032;-64
2021/01/09 10:28:07;;;;;;;110.40;65.03;;;1.70;99.90;;;;;;5087127;28;20043;-64
2021/01/09 10:30:33;;;;;;;107.60;66.45;;;1.30;99.90;;;;;;5084627;28;20012;-64
2021/01/09 10:32:59;;;;;;;101.57;61.65;;;1.20;99.90;;;;;;5088104;28;20103;-63
2021/01/09 10:35:25;;;;;;;105.60;65.03;;;1.10;99.90;;;;;;5082703;28;20095;-62
2021/01/09 10:37:50;;;;;;;108.60;63.22;;;1.10;99.90;;;;;;5088567;28;20031;-62
2021/01/09 10:40:16;;;;;;;96.70;56.15;;;0.90;99.90;;;;;;5085239;28;20035;-63
2021/01/09 10:42:42;;;;;;;104.38;61.15;;;1.60;99.90;;;;;;5090917;28;20024;-63
2021/01/09 10:45:08;;;;;;;102.88;59.63;;;1.30;99.90;;;;;;5082167;28;20086;-63
2021/01/09 10:47:34;;;;;;;103.93;60.15;;;1.30;99.90;;;;;;5089274;28;20047;-62
2021/01/09 10:49:59;;;;;;;106.32;59.60;;;1.40;99.90;;;;;;5084844;28;20024;-63
2021/01/09 10:52:25;;;;;;;109.28;61.15;;;1.40;99.90;;;;;;5089508;28;20024;-63
2021/01/09 10:54:51;;;;;;;98.53;57.70;;;1.40;99.90;;;;;;5064446;28;20437;-72
2021/01/09 10:57:16;;;;;;;94.18;53.45;;;1.60;99.90;;;;;;5080463;28;20065;-62
2021/01/09 10:59:42;;;;;;;100.05;58.05;;;1.40;99.90;;;;;;5081501;28;20032;-62
2021/01/09 11:02:08;;;;;;;91.32;54.05;;;1.40;99.90;;;;;;5089080;28;20035;-62
2021/01/09 11:04:34;;;;;;;90.93;53.13;;;1.40;99.90;;;;;;5086979;28;20032;-62
2021/01/09 11:07:00;;;;;;;86.28;48.33;;;1.50;99.90;;;;;;5086729;28;20392;-71
2021/01/09 11:09:26;;;;;;;84.13;49.83;;;1.50;99.90;;;;;;5086232;28;20028;-62
2021/01/09 11:11:52;;;;;;;89.68;52.47;;;1.30;99.90;;;;;;5088655;28;20373;-62
2021/01/09 11:14:18;;;;;;;90.03;51.55;;;1.70;99.90;;;;;;5082217;28;20103;-62
2021/01/09 11:16:44;;;;;;;86.05;49.78;;;1.60;99.90;;;;;;5083913;28;20120;-62
2021/01/09 11:19:10;;;;;;;79.70;47.70;;;1.70;99.90;;;;;;5082761;28;20055;-62
2021/01/09 11:21:37;;;;;;;86.57;50.70;;;1.70;99.90;;;;;;5097161;28;20047;-62
2021/01/09 11:24:04;;;;;;;84.35;49.55;;;1.70;99.90;;;;;;5083453;28;20059;-62
2021/01/09 11:26:30;;;;;;;83.53;49.10;;;1.80;99.90;;;;;;5080097;28;20107;-62
2021/01/09 11:28:56;;;;;;;82.57;49.00;;;1.70;99.90;;;;;;5086001;28;20108;-62
2021/01/09 11:31:22;;;;;;;79.75;46.78;;;1.70;99.90;;;;;;5080229;28;20025;-62
2021/01/09 11:33:48;;;;;;;84.22;49.70;;;1.60;99.90;;;;;;5076140;28;20028;-62
2021/01/09 11:36:14;;;;;;;84.90;50.25;;;1.60;99.90;;;;;;5083623;28;20031;-63
2021/01/09 11:38:39;;;;;;;82.13;48.15;;;1.80;99.90;;;;;;5089036;28;20085;-62
2021/01/09 11:41:06;;;;;;;76.68;45.92;;;1.80;99.90;;;;;;5091550;28;20454;-65
2021/01/09 11:43:33;;;;;;;77.45;45.75;;;1.90;99.90;;;;;;5088069;28;20051;-64
2021/01/09 11:45:59;;;;;;;72.65;42.72;;;2.10;99.90;;;;;;5088417;28;20535;-63
2021/01/09 11:48:27;;;;;;;79.68;47.03;;;2.10;99.90;;;;;;5090443;28;20039;-63
2021/01/09 11:50:53;;;;;;;77.03;44.53;;;1.90;99.90;;;;;;5088705;28;20094;-63
2021/01/09 11:53:20;;;;;;;74.57;44.40;;;2.00;99.90;;;;;;5089012;28;20024;-63
2021/01/09 11:55:47;;;;;;;75.35;43.08;;;2.00;99.90;;;;;;5085782;28;20656;-63
2021/01/09 11:58:13;;;;;;;72.82;43.20;;;2.50;99.90;;;;;;5090753;28;20252;-70
2021/01/09 12:00:38;;;;;;;74.95;42.92;;;2.40;99.90;;;;;;5086891;28;20103;-63
2021/01/09 12:03:04;;;;;;;75.05;43.70;;;2.20;99.90;;;;;;5089896;28;20063;-63
2021/01/09 12:05:30;;;;;;;72.25;42.50;;;2.20;99.90;;;;;;5083830;28;20069;-63
2021/01/09 12:07:55;;;;;;;70.32;40.95;;;2.20;99.90;;;;;;5090866;28;20040;-63
2021/01/09 12:10:21;;;;;;;64.55;39.10;;;2.30;99.90;;;;;;5082096;28;20024;-64
2021/01/09 12:12:47;;;;;;;66.60;39.75;;;2.40;99.90;;;;;;5091415;28;20020;-63
2021/01/09 12:15:12;;;;;;;76.00;43.92;;;2.40;99.90;;;;;;5080453;28;20245;-63
2021/01/09 12:17:38;;;;;;;77.00;42.75;;;2.20;99.90;;;;;;5091474;28;20039;-63
2021/01/09 12:20:05;;;;;;;75.68;44.25;;;2.30;99.90;;;;;;5087938;28;20607;-64
2021/01/09 12:22:31;;;;;;;75.15;43.03;;;2.30;99.90;;;;;;5091640;28;20020;-64
2021/01/09 12:24:58;;;;;;;71.53;44.15;;;2.70;99.90;;;;;;5080626;28;20102;-63
2021/01/09 12:27:24;;;;;;;78.30;44.80;;;2.60;99.90;;;;;;5091569;28;20120;-62